sensor_id;sensor_type;location;lat;lon;timestamp;P1;durP1;ratioP1;P2;durP2;ratioP2
1350;SDS011;669;50.206;9.998;2023-02-24T00:00:18;34.20;;;19.00;;
1350;SDS011;669;50.206;9.998;2023-02-24T00:02:57;26.27;;;17.10;;
1350;SDS011;669;50.206;9.998;2023-02-24T00:05:34;27.97;;;16.97;;
1350;SDS011;669;50.206;9.998;2023-02-24T00:08:05;33.67;;;17.70;;
1350;SDS011;669;50.206;9.998;2023-02-24T00:10:33;34.87;;;19.10;;
1350;SDS011;669;50.206;9.998;2023-02-24T00:13:02;31.50;;;17.70;;
1350;SDS011;669;50.206;9.998;2023-02-24T00:15:30;28.50;;;17.93;;
1350;SDS011;669;50.206;9.998;2023-02-24T00:17:58;27.40;;;15.70;;
1350;SDS011;669;50.206;9.998;2023-02-24T00:20:32;29.90;;;18.20;;
1350;SDS011;669;50.206;9.998;2023-02-24T00:23:01;30.00;;;17.50;;
1350;SDS011;669;50.206;9.998;2023-02-24T00:25:30;32.93;;;18.67;;
1350;SDS011;669;50.206;9.998;2023-02-24T00:27:58;27.47;;;16.10;;
1350;SDS011;669;50.206;9.998;2023-02-24T00:30:27;34.00;;;17.30;;
1350;SDS011;669;50.206;9.998;2023-02-24T00:32:56;34.03;;;18.80;;
1350;SDS011;669;50.206;9.998;2023-02-24T00:35:26;31.53;;;19.83;;
1350;SDS011;669;50.206;9.998;2023-02-24T00:37:54;38.00;;;19.90;;
1350;SDS011;669;50.206;9.998;2023-02-24T00:40:22;28.70;;;17.43;;
1350;SDS011;669;50.206;9.998;2023-02-24T00:42:51;37.33;;;20.83;;
1350;SDS011;669;50.206;9.998;2023-02-24T00:45:20;33.97;;;18.90;;
1350;SDS011;669;50.206;9.998;2023-02-24T00:47:48;36.53;;;20.57;;
1350;SDS011;669;50.206;9.998;2023-02-24T00:50:16;34.03;;;18.97;;
1350;SDS011;669;50.206;9.998;2023-02-24T00:52:44;39.93;;;21.53;;
1350;SDS011;669;50.206;9.998;2023-02-24T00:55:12;28.33;;;16.90;;
1350;SDS011;669;50.206;9.998;2023-02-24T00:57:40;28.80;;;16.33;;
1350;SDS011;669;50.206;9.998;2023-02-24T01:00:12;29.70;;;16.73;;
1350;SDS011;669;50.206;9.998;2023-02-24T01:02:42;26.70;;;16.33;;
1350;SDS011;669;50.206;9.998;2023-02-24T01:05:11;23.33;;;14.07;;
1350;SDS011;669;50.206;9.998;2023-02-24T01:07:40;24.37;;;15.67;;
1350;SDS011;669;50.206;9.998;2023-02-24T01:10:09;24.47;;;14.20;;
1350;SDS011;669;50.206;9.998;2023-02-24T01:12:37;21.63;;;13.53;;
1350;SDS011;669;50.206;9.998;2023-02-24T01:15:16;20.73;;;12.70;;
1350;SDS011;669;50.206;9.998;2023-02-24T01:17:45;22.13;;;13.13;;
1350;SDS011;669;50.206;9.998;2023-02-24T01:20:13;26.50;;;15.00;;
1350;SDS011;669;50.206;9.998;2023-02-24T01:22:47;27.90;;;13.60;;
1350;SDS011;669;50.206;9.998;2023-02-24T01:25:18;22.67;;;13.00;;
1350;SDS011;669;50.206;9.998;2023-02-24T01:27:46;22.50;;;13.93;;
1350;SDS011;669;50.206;9.998;2023-02-24T01:30:16;23.53;;;13.23;;
1350;SDS011;669;50.206;9.998;2023-02-24T01:32:45;26.93;;;14.20;;
1350;SDS011;669;50.206;9.998;2023-02-24T01:35:14;19.97;;;13.07;;
1350;SDS011;669;50.206;9.998;2023-02-24T01:37:42;19.17;;;13.23;;
1350;SDS011;669;50.206;9.998;2023-02-24T01:40:11;17.33;;;11.50;;
1350;SDS011;669;50.206;9.998;2023-02-24T01:42:45;16.40;;;9.83;;
1350;SDS011;669;50.206;9.998;2023-02-24T01:45:19;19.20;;;12.13;;
1350;SDS011;669;50.206;9.998;2023-02-24T01:47:50;14.67;;;9.90;;
1350;SDS011;669;50.206;9.998;2023-02-24T01:50:19;23.03;;;12.50;;
1350;SDS011;669;50.206;9.998;2023-02-24T01:52:51;19.47;;;12.80;;
1350;SDS011;669;50.206;9.998;2023-02-24T01:55:24;16.60;;;10.77;;
1350;SDS011;669;50.206;9.998;2023-02-24T01:57:57;17.60;;;11.37;;
1350;SDS011;669;50.206;9.998;2023-02-24T02:00:28;20.57;;;10.90;;
1350;SDS011;669;50.206;9.998;2023-02-24T02:03:11;20.40;;;10.60;;
1350;SDS011;669;50.206;9.998;2023-02-24T02:05:45;16.87;;;10.87;;
1350;SDS011;669;50.206;9.998;2023-02-24T02:08:14;16.17;;;10.93;;
1350;SDS011;669;50.206;9.998;2023-02-24T02:10:44;16.10;;;9.73;;
1350;SDS011;669;50.206;9.998;2023-02-24T02:13:13;15.97;;;9.20;;
1350;SDS011;669;50.206;9.998;2023-02-24T02:15:50;15.87;;;9.27;;
1350;SDS011;669;50.206;9.998;2023-02-24T02:18:25;20.27;;;10.60;;
1350;SDS011;669;50.206;9.998;2023-02-24T02:24:09;13.60;;;8.53;;
1350;SDS011;669;50.206;9.998;2023-02-24T02:27:13;16.27;;;9.40;;
1350;SDS011;669;50.206;9.998;2023-02-24T02:30:08;17.37;;;10.40;;
1350;SDS011;669;50.206;9.998;2023-02-24T02:32:50;15.00;;;7.83;;
1350;SDS011;669;50.206;9.998;2023-02-24T02:35:40;14.87;;;8.90;;
1350;SDS011;669;50.206;9.998;2023-02-24T02:38:15;13.80;;;9.50;;
1350;SDS011;669;50.206;9.998;2023-02-24T02:40:52;16.00;;;9.80;;
1350;SDS011;669;50.206;9.998;2023-02-24T02:43:27;15.30;;;8.40;;
1350;SDS011;669;50.206;9.998;2023-02-24T02:45:59;15.30;;;9.57;;
1350;SDS011;669;50.206;9.998;2023-02-24T02:48:35;15.50;;;9.47;;
1350;SDS011;669;50.206;9.998;2023-02-24T02:51:12;12.47;;;7.47;;
1350;SDS011;669;50.206;9.998;2023-02-24T02:53:47;12.27;;;7.33;;
1350;SDS011;669;50.206;9.998;2023-02-24T02:56:19;14.23;;;9.07;;
1350;SDS011;669;50.206;9.998;2023-02-24T02:58:51;12.70;;;8.43;;
1350;SDS011;669;50.206;9.998;2023-02-24T03:01:23;13.23;;;8.33;;
1350;SDS011;669;50.206;9.998;2023-02-24T03:03:55;16.40;;;9.37;;
1350;SDS011;669;50.206;9.998;2023-02-24T03:06:28;18.47;;;10.27;;
1350;SDS011;669;50.206;9.998;2023-02-24T03:08:59;18.20;;;9.27;;
1350;SDS011;669;50.206;9.998;2023-02-24T03:11:37;14.07;;;8.90;;
1350;SDS011;669;50.206;9.998;2023-02-24T03:14:06;14.13;;;8.50;;
1350;SDS011;669;50.206;9.998;2023-02-24T03:16:38;11.27;;;7.80;;
1350;SDS011;669;50.206;9.998;2023-02-24T03:19:12;15.40;;;7.97;;
1350;SDS011;669;50.206;9.998;2023-02-24T03:21:44;17.70;;;9.30;;
1350;SDS011;669;50.206;9.998;2023-02-24T03:24:17;11.30;;;7.90;;
1350;SDS011;669;50.206;9.998;2023-02-24T03:26:46;15.13;;;8.43;;
1350;SDS011;669;50.206;9.998;2023-02-24T03:29:18;13.87;;;8.83;;
1350;SDS011;669;50.206;9.998;2023-02-24T03:31:50;12.80;;;8.83;;
1350;SDS011;669;50.206;9.998;2023-02-24T03:34:26;13.47;;;7.93;;
1350;SDS011;669;50.206;9.998;2023-02-24T03:37:00;13.73;;;9.03;;
1350;SDS011;669;50.206;9.998;2023-02-24T03:39:29;12.20;;;7.60;;
1350;SDS011;669;50.206;9.998;2023-02-24T03:41:59;12.53;;;8.77;;
1350;SDS011;669;50.206;9.998;2023-02-24T03:44:34;14.20;;;8.40;;
1350;SDS011;669;50.206;9.998;2023-02-24T03:47:02;13.50;;;8.93;;
1350;SDS011;669;50.206;9.998;2023-02-24T03:49:30;17.30;;;8.50;;
1350;SDS011;669;50.206;9.998;2023-02-24T03:52:02;16.27;;;9.90;;
1350;SDS011;669;50.206;9.998;2023-02-24T03:54:44;11.20;;;8.27;;
1350;SDS011;669;50.206;9.998;2023-02-24T03:57:27;13.50;;;7.23;;
1350;SDS011;669;50.206;9.998;2023-02-24T04:00:03;14.97;;;8.20;;
1350;SDS011;669;50.206;9.998;2023-02-24T04:02:48;12.40;;;8.10;;
1350;SDS011;669;50.206;9.998;2023-02-24T04:05:23;11.73;;;7.93;;
1350;SDS011;669;50.206;9.998;2023-02-24T04:07:58;14.17;;;7.20;;
1350;SDS011;669;50.206;9.998;2023-02-24T04:10:29;13.77;;;7.90;;
1350;SDS011;669;50.206;9.998;2023-02-24T04:13:03;14.00;;;7.70;;
1350;SDS011;669;50.206;9.998;2023-02-24T04:15:38;12.97;;;8.10;;
1350;SDS011;669;50.206;9.998;2023-02-24T04:18:10;13.40;;;7.33;;
1350;SDS011;669;50.206;9.998;2023-02-24T04:20:41;15.30;;;8.63;;
1350;SDS011;669;50.206;9.998;2023-02-24T04:23:16;13.10;;;8.60;;
1350;SDS011;669;50.206;9.998;2023-02-24T04:25:47;12.40;;;8.20;;
1350;SDS011;669;50.206;9.998;2023-02-24T04:28:18;11.33;;;6.80;;
1350;SDS011;669;50.206;9.998;2023-02-24T04:30:49;12.30;;;8.37;;
1350;SDS011;669;50.206;9.998;2023-02-24T04:33:20;12.60;;;7.70;;
1350;SDS011;669;50.206;9.998;2023-02-24T04:35:49;12.40;;;7.17;;
1350;SDS011;669;50.206;9.998;2023-02-24T04:38:19;13.43;;;7.27;;
1350;SDS011;669;50.206;9.998;2023-02-24T04:40:48;12.60;;;6.83;;
1350;SDS011;669;50.206;9.998;2023-02-24T04:43:17;10.83;;;7.33;;
1350;SDS011;669;50.206;9.998;2023-02-24T04:45:45;11.33;;;6.33;;
1350;SDS011;669;50.206;9.998;2023-02-24T04:48:13;11.63;;;6.73;;
1350;SDS011;669;50.206;9.998;2023-02-24T04:50:42;11.50;;;6.60;;
1350;SDS011;669;50.206;9.998;2023-02-24T04:53:11;10.33;;;6.17;;
1350;SDS011;669;50.206;9.998;2023-02-24T04:55:43;9.13;;;6.00;;
1350;SDS011;669;50.206;9.998;2023-02-24T04:58:15;10.97;;;7.30;;
1350;SDS011;669;50.206;9.998;2023-02-24T05:00:45;13.10;;;8.60;;
1350;SDS011;669;50.206;9.998;2023-02-24T05:03:14;10.67;;;7.40;;
1350;SDS011;669;50.206;9.998;2023-02-24T05:05:47;13.53;;;7.70;;
1350;SDS011;669;50.206;9.998;2023-02-24T05:08:17;14.43;;;7.53;;
1350;SDS011;669;50.206;9.998;2023-02-24T05:10:47;13.77;;;8.20;;
1350;SDS011;669;50.206;9.998;2023-02-24T05:13:17;15.90;;;8.80;;
1350;SDS011;669;50.206;9.998;2023-02-24T05:15:46;16.13;;;9.37;;
1350;SDS011;669;50.206;9.998;2023-02-24T05:18:15;17.40;;;9.63;;
1350;SDS011;669;50.206;9.998;2023-02-24T05:20:47;17.37;;;10.30;;
1350;SDS011;669;50.206;9.998;2023-02-24T05:23:36;14.90;;;8.03;;
1350;SDS011;669;50.206;9.998;2023-02-24T05:26:07;14.93;;;8.40;;
1350;SDS011;669;50.206;9.998;2023-02-24T05:28:36;18.43;;;9.33;;
1350;SDS011;669;50.206;9.998;2023-02-24T05:31:06;14.53;;;9.07;;
1350;SDS011;669;50.206;9.998;2023-02-24T05:33:36;15.80;;;8.90;;
1350;SDS011;669;50.206;9.998;2023-02-24T05:36:07;15.80;;;9.07;;
1350;SDS011;669;50.206;9.998;2023-02-24T05:38:38;17.13;;;8.10;;
1350;SDS011;669;50.206;9.998;2023-02-24T05:41:09;16.20;;;8.63;;
1350;SDS011;669;50.206;9.998;2023-02-24T05:43:42;17.50;;;9.23;;
1350;SDS011;669;50.206;9.998;2023-02-24T05:46:13;17.50;;;8.70;;
1350;SDS011;669;50.206;9.998;2023-02-24T05:48:41;13.40;;;7.57;;
1350;SDS011;669;50.206;9.998;2023-02-24T05:51:10;15.07;;;8.70;;
1350;SDS011;669;50.206;9.998;2023-02-24T05:53:38;16.97;;;9.37;;
1350;SDS011;669;50.206;9.998;2023-02-24T05:56:08;17.10;;;9.20;;
1350;SDS011;669;50.206;9.998;2023-02-24T05:58:37;20.00;;;10.97;;
1350;SDS011;669;50.206;9.998;2023-02-24T06:01:09;18.73;;;10.17;;
1350;SDS011;669;50.206;9.998;2023-02-24T06:03:41;17.10;;;8.13;;
1350;SDS011;669;50.206;9.998;2023-02-24T06:06:13;17.50;;;8.63;;
1350;SDS011;669;50.206;9.998;2023-02-24T06:08:41;19.67;;;9.40;;
1350;SDS011;669;50.206;9.998;2023-02-24T06:11:16;12.37;;;7.10;;
1350;SDS011;669;50.206;9.998;2023-02-24T06:13:46;14.30;;;7.90;;
1350;SDS011;669;50.206;9.998;2023-02-24T06:16:15;14.60;;;7.50;;
1350;SDS011;669;50.206;9.998;2023-02-24T06:18:46;13.20;;;8.20;;
1350;SDS011;669;50.206;9.998;2023-02-24T06:21:15;15.97;;;7.80;;
1350;SDS011;669;50.206;9.998;2023-02-24T06:23:44;12.60;;;7.83;;
1350;SDS011;669;50.206;9.998;2023-02-24T06:26:12;16.97;;;8.83;;
1350;SDS011;669;50.206;9.998;2023-02-24T06:28:46;16.17;;;8.87;;
1350;SDS011;669;50.206;9.998;2023-02-24T06:31:15;20.83;;;8.63;;
1350;SDS011;669;50.206;9.998;2023-02-24T06:33:42;13.77;;;8.43;;
1350;SDS011;669;50.206;9.998;2023-02-24T06:36:10;19.07;;;9.90;;
1350;SDS011;669;50.206;9.998;2023-02-24T06:38:39;16.53;;;8.20;;
1350;SDS011;669;50.206;9.998;2023-02-24T06:41:08;11.77;;;6.93;;
1350;SDS011;669;50.206;9.998;2023-02-24T06:43:37;17.20;;;9.80;;
1350;SDS011;669;50.206;9.998;2023-02-24T06:46:06;18.07;;;8.97;;
1350;SDS011;669;50.206;9.998;2023-02-24T06:48:36;13.80;;;7.80;;
1350;SDS011;669;50.206;9.998;2023-02-24T06:51:04;15.67;;;8.70;;
1350;SDS011;669;50.206;9.998;2023-02-24T06:53:33;12.00;;;6.87;;
1350;SDS011;669;50.206;9.998;2023-02-24T06:56:04;12.83;;;8.07;;
1350;SDS011;669;50.206;9.998;2023-02-24T06:58:40;16.07;;;8.30;;
1350;SDS011;669;50.206;9.998;2023-02-24T07:01:12;17.47;;;9.90;;
1350;SDS011;669;50.206;9.998;2023-02-24T07:03:42;17.47;;;9.83;;
1350;SDS011;669;50.206;9.998;2023-02-24T07:06:28;20.57;;;10.93;;
1350;SDS011;669;50.206;9.998;2023-02-24T07:08:59;17.40;;;10.70;;
1350;SDS011;669;50.206;9.998;2023-02-24T07:11:30;21.00;;;12.20;;
1350;SDS011;669;50.206;9.998;2023-02-24T07:13:59;21.90;;;11.53;;
1350;SDS011;669;50.206;9.998;2023-02-24T07:16:28;17.37;;;10.03;;
1350;SDS011;669;50.206;9.998;2023-02-24T07:18:57;21.83;;;10.50;;
1350;SDS011;669;50.206;9.998;2023-02-24T07:21:28;21.10;;;10.60;;
1350;SDS011;669;50.206;9.998;2023-02-24T07:24:04;18.50;;;10.50;;
1350;SDS011;669;50.206;9.998;2023-02-24T07:26:34;19.70;;;11.03;;
1350;SDS011;669;50.206;9.998;2023-02-24T07:29:07;15.50;;;9.20;;
1350;SDS011;669;50.206;9.998;2023-02-24T07:31:38;23.40;;;10.23;;
1350;SDS011;669;50.206;9.998;2023-02-24T07:34:08;17.73;;;10.23;;
1350;SDS011;669;50.206;9.998;2023-02-24T07:36:40;20.07;;;9.77;;
1350;SDS011;669;50.206;9.998;2023-02-24T07:39:15;19.63;;;11.17;;
1350;SDS011;669;50.206;9.998;2023-02-24T07:41:44;17.40;;;10.27;;
1350;SDS011;669;50.206;9.998;2023-02-24T07:44:15;17.67;;;10.63;;
1350;SDS011;669;50.206;9.998;2023-02-24T07:46:45;18.70;;;10.10;;
1350;SDS011;669;50.206;9.998;2023-02-24T07:49:15;17.97;;;9.60;;
1350;SDS011;669;50.206;9.998;2023-02-24T07:51:45;19.60;;;10.93;;
1350;SDS011;669;50.206;9.998;2023-02-24T07:54:17;20.83;;;10.40;;
1350;SDS011;669;50.206;9.998;2023-02-24T07:56:47;16.90;;;9.23;;
1350;SDS011;669;50.206;9.998;2023-02-24T07:59:23;17.50;;;9.57;;
1350;SDS011;669;50.206;9.998;2023-02-24T08:01:54;20.87;;;10.90;;
1350;SDS011;669;50.206;9.998;2023-02-24T08:04:24;15.03;;;8.63;;
1350;SDS011;669;50.206;9.998;2023-02-24T08:06:54;16.40;;;9.83;;
1350;SDS011;669;50.206;9.998;2023-02-24T08:09:28;17.70;;;9.20;;
1350;SDS011;669;50.206;9.998;2023-02-24T08:12:16;18.00;;;10.47;;
1350;SDS011;669;50.206;9.998;2023-02-24T08:14:47;18.17;;;10.17;;
1350;SDS011;669;50.206;9.998;2023-02-24T08:17:18;17.73;;;9.53;;
1350;SDS011;669;50.206;9.998;2023-02-24T08:19:48;18.10;;;9.93;;
1350;SDS011;669;50.206;9.998;2023-02-24T08:22:37;18.80;;;10.07;;
1350;SDS011;669;50.206;9.998;2023-02-24T08:25:09;27.40;;;13.27;;
1350;SDS011;669;50.206;9.998;2023-02-24T08:27:44;24.20;;;12.90;;
1350;SDS011;669;50.206;9.998;2023-02-24T08:30:33;19.60;;;11.10;;
1350;SDS011;669;50.206;9.998;2023-02-24T08:33:07;18.37;;;10.60;;
1350;SDS011;669;50.206;9.998;2023-02-24T08:35:37;22.57;;;12.27;;
1350;SDS011;669;50.206;9.998;2023-02-24T08:38:11;26.90;;;11.43;;
1350;SDS011;669;50.206;9.998;2023-02-24T08:40:42;19.97;;;10.80;;
1350;SDS011;669;50.206;9.998;2023-02-24T08:43:19;24.73;;;11.33;;
1350;SDS011;669;50.206;9.998;2023-02-24T08:45:59;17.90;;;10.00;;
1350;SDS011;669;50.206;9.998;2023-02-24T08:48:32;19.27;;;10.53;;
1350;SDS011;669;50.206;9.998;2023-02-24T08:51:06;20.93;;;11.07;;
1350;SDS011;669;50.206;9.998;2023-02-24T08:53:36;21.53;;;11.77;;
1350;SDS011;669;50.206;9.998;2023-02-24T08:56:07;23.33;;;11.97;;
1350;SDS011;669;50.206;9.998;2023-02-24T08:58:37;21.67;;;11.90;;
1350;SDS011;669;50.206;9.998;2023-02-24T09:01:13;21.60;;;12.27;;
1350;SDS011;669;50.206;9.998;2023-02-24T09:03:52;24.40;;;13.30;;
1350;SDS011;669;50.206;9.998;2023-02-24T09:06:23;21.17;;;11.07;;
1350;SDS011;669;50.206;9.998;2023-02-24T09:09:03;21.37;;;12.33;;
1350;SDS011;669;50.206;9.998;2023-02-24T09:11:43;29.13;;;12.70;;
1350;SDS011;669;50.206;9.998;2023-02-24T09:14:12;20.77;;;11.50;;
1350;SDS011;669;50.206;9.998;2023-02-24T09:16:54;18.97;;;10.40;;
1350;SDS011;669;50.206;9.998;2023-02-24T09:19:38;27.93;;;11.90;;
1350;SDS011;669;50.206;9.998;2023-02-24T09:22:28;22.90;;;11.83;;
1350;SDS011;669;50.206;9.998;2023-02-24T09:24:58;27.57;;;13.43;;
1350;SDS011;669;50.206;9.998;2023-02-24T09:27:49;26.33;;;13.17;;
1350;SDS011;669;50.206;9.998;2023-02-24T09:30:21;24.40;;;12.63;;
1350;SDS011;669;50.206;9.998;2023-02-24T09:33:09;22.50;;;12.40;;
1350;SDS011;669;50.206;9.998;2023-02-24T09:35:48;28.67;;;13.43;;
1350;SDS011;669;50.206;9.998;2023-02-24T09:38:29;22.87;;;12.93;;
1350;SDS011;669;50.206;9.998;2023-02-24T09:41:19;25.83;;;13.00;;
1350;SDS011;669;50.206;9.998;2023-02-24T09:43:58;24.83;;;13.23;;
1350;SDS011;669;50.206;9.998;2023-02-24T09:46:35;25.93;;;14.57;;
1350;SDS011;669;50.206;9.998;2023-02-24T09:49:11;28.37;;;14.97;;
1350;SDS011;669;50.206;9.998;2023-02-24T09:51:44;25.67;;;13.90;;
1350;SDS011;669;50.206;9.998;2023-02-24T09:54:18;25.70;;;11.83;;
1350;SDS011;669;50.206;9.998;2023-02-24T09:56:51;27.53;;;12.20;;
1350;SDS011;669;50.206;9.998;2023-02-24T09:59:35;22.23;;;12.47;;
1350;SDS011;669;50.206;9.998;2023-02-24T10:02:22;25.23;;;12.90;;
1350;SDS011;669;50.206;9.998;2023-02-24T10:05:02;18.30;;;11.20;;
1350;SDS011;669;50.206;9.998;2023-02-24T10:07:41;19.63;;;11.40;;
1350;SDS011;669;50.206;9.998;2023-02-24T10:10:10;22.67;;;12.30;;
1350;SDS011;669;50.206;9.998;2023-02-24T10:12:46;21.40;;;11.27;;
1350;SDS011;669;50.206;9.998;2023-02-24T10:15:18;22.30;;;13.50;;
1350;SDS011;669;50.206;9.998;2023-02-24T10:18:25;20.67;;;11.33;;
1350;SDS011;669;50.206;9.998;2023-02-24T10:20:58;19.40;;;10.20;;
1350;SDS011;669;50.206;9.998;2023-02-24T10:23:38;16.63;;;9.93;;
1350;SDS011;669;50.206;9.998;2023-02-24T10:26:22;19.97;;;10.87;;
1350;SDS011;669;50.206;9.998;2023-02-24T10:29:02;21.87;;;13.90;;
1350;SDS011;669;50.206;9.998;2023-02-24T10:31:44;19.07;;;10.50;;
1350;SDS011;669;50.206;9.998;2023-02-24T10:34:16;18.40;;;11.50;;
1350;SDS011;669;50.206;9.998;2023-02-24T10:36:50;18.10;;;10.40;;
1350;SDS011;669;50.206;9.998;2023-02-24T10:39:23;18.10;;;10.20;;
1350;SDS011;669;50.206;9.998;2023-02-24T10:41:52;19.60;;;10.10;;
1350;SDS011;669;50.206;9.998;2023-02-24T10:44:24;15.97;;;9.50;;
1350;SDS011;669;50.206;9.998;2023-02-24T10:47:03;16.40;;;10.23;;
1350;SDS011;669;50.206;9.998;2023-02-24T10:49:40;14.97;;;10.40;;
1350;SDS011;669;50.206;9.998;2023-02-24T10:52:23;19.40;;;9.87;;
1350;SDS011;669;50.206;9.998;2023-02-24T10:55:15;16.90;;;9.90;;
1350;SDS011;669;50.206;9.998;2023-02-24T10:58:18;17.90;;;9.50;;
1350;SDS011;669;50.206;9.998;2023-02-24T11:01:06;19.07;;;10.00;;
1350;SDS011;669;50.206;9.998;2023-02-24T11:03:39;19.43;;;10.20;;
1350;SDS011;669;50.206;9.998;2023-02-24T11:06:17;13.57;;;7.90;;
1350;SDS011;669;50.206;9.998;2023-02-24T11:08:56;18.07;;;10.00;;
1350;SDS011;669;50.206;9.998;2023-02-24T11:11:46;17.10;;;10.27;;
1350;SDS011;669;50.206;9.998;2023-02-24T11:14:32;15.03;;;9.30;;
1350;SDS011;669;50.206;9.998;2023-02-24T11:17:22;16.63;;;8.20;;
1350;SDS011;669;50.206;9.998;2023-02-24T11:19:57;15.33;;;8.43;;
1350;SDS011;669;50.206;9.998;2023-02-24T11:22:29;14.17;;;8.00;;
1350;SDS011;669;50.206;9.998;2023-02-24T11:25:02;13.20;;;8.30;;
1350;SDS011;669;50.206;9.998;2023-02-24T11:27:39;15.63;;;9.97;;
1350;SDS011;669;50.206;9.998;2023-02-24T11:30:14;13.53;;;7.90;;
1350;SDS011;669;50.206;9.998;2023-02-24T11:32:49;12.40;;;7.00;;
1350;SDS011;669;50.206;9.998;2023-02-24T11:35:37;9.53;;;5.93;;
1350;SDS011;669;50.206;9.998;2023-02-24T11:38:14;12.83;;;7.43;;
1350;SDS011;669;50.206;9.998;2023-02-24T11:40:57;13.53;;;7.70;;
1350;SDS011;669;50.206;9.998;2023-02-24T11:43:32;12.00;;;7.03;;
1350;SDS011;669;50.206;9.998;2023-02-24T11:46:04;14.83;;;7.03;;
1350;SDS011;669;50.206;9.998;2023-02-24T11:48:37;13.17;;;7.43;;
1350;SDS011;669;50.206;9.998;2023-02-24T11:51:09;12.07;;;6.37;;
1350;SDS011;669;50.206;9.998;2023-02-24T11:53:41;11.77;;;6.63;;
1350;SDS011;669;50.206;9.998;2023-02-24T11:56:14;10.90;;;6.40;;
1350;SDS011;669;50.206;9.998;2023-02-24T11:58:48;13.20;;;7.10;;
1350;SDS011;669;50.206;9.998;2023-02-24T12:01:20;12.23;;;7.27;;
1350;SDS011;669;50.206;9.998;2023-02-24T12:03:55;14.60;;;8.00;;
1350;SDS011;669;50.206;9.998;2023-02-24T12:06:30;11.20;;;7.03;;
1350;SDS011;669;50.206;9.998;2023-02-24T12:09:06;11.80;;;7.87;;
1350;SDS011;669;50.206;9.998;2023-02-24T12:11:42;10.87;;;6.70;;
1350;SDS011;669;50.206;9.998;2023-02-24T12:14:20;10.27;;;6.90;;
1350;SDS011;669;50.206;9.998;2023-02-24T12:16:54;10.80;;;5.90;;
1350;SDS011;669;50.206;9.998;2023-02-24T12:19:34;10.40;;;6.00;;
1350;SDS011;669;50.206;9.998;2023-02-24T12:22:10;10.33;;;6.63;;
1350;SDS011;669;50.206;9.998;2023-02-24T12:24:43;11.43;;;6.83;;
1350;SDS011;669;50.206;9.998;2023-02-24T12:27:17;8.40;;;5.93;;
1350;SDS011;669;50.206;9.998;2023-02-24T12:29:56;12.80;;;7.47;;
1350;SDS011;669;50.206;9.998;2023-02-24T12:32:38;12.00;;;7.13;;
1350;SDS011;669;50.206;9.998;2023-02-24T12:35:20;11.23;;;6.77;;
1350;SDS011;669;50.206;9.998;2023-02-24T12:38:02;11.20;;;6.40;;
1350;SDS011;669;50.206;9.998;2023-02-24T12:40:43;10.43;;;6.60;;
1350;SDS011;669;50.206;9.998;2023-02-24T12:43:19;11.17;;;7.33;;
1350;SDS011;669;50.206;9.998;2023-02-24T12:45:57;10.57;;;6.90;;
1350;SDS011;669;50.206;9.998;2023-02-24T12:48:33;11.77;;;6.67;;
1350;SDS011;669;50.206;9.998;2023-02-24T12:51:20;11.80;;;7.10;;
1350;SDS011;669;50.206;9.998;2023-02-24T12:53:56;15.87;;;7.37;;
1350;SDS011;669;50.206;9.998;2023-02-24T12:56:33;14.87;;;7.10;;
1350;SDS011;669;50.206;9.998;2023-02-24T12:59:08;13.60;;;8.73;;
1350;SDS011;669;50.206;9.998;2023-02-24T13:01:42;12.50;;;7.40;;
1350;SDS011;669;50.206;9.998;2023-02-24T13:04:20;14.70;;;8.50;;
1350;SDS011;669;50.206;9.998;2023-02-24T13:07:03;12.47;;;7.60;;
1350;SDS011;669;50.206;9.998;2023-02-24T13:09:39;9.90;;;5.77;;
1350;SDS011;669;50.206;9.998;2023-02-24T13:12:14;10.10;;;6.47;;
1350;SDS011;669;50.206;9.998;2023-02-24T13:14:46;10.00;;;6.10;;
1350;SDS011;669;50.206;9.998;2023-02-24T13:17:17;10.07;;;6.10;;
1350;SDS011;669;50.206;9.998;2023-02-24T13:19:47;9.03;;;6.60;;
1350;SDS011;669;50.206;9.998;2023-02-24T13:22:19;10.70;;;6.90;;
1350;SDS011;669;50.206;9.998;2023-02-24T13:24:55;9.37;;;6.13;;
1350;SDS011;669;50.206;9.998;2023-02-24T13:27:26;10.60;;;6.60;;
1350;SDS011;669;50.206;9.998;2023-02-24T13:29:56;8.97;;;5.50;;
1350;SDS011;669;50.206;9.998;2023-02-24T13:32:28;10.17;;;6.60;;
1350;SDS011;669;50.206;9.998;2023-02-24T13:34:59;9.53;;;6.40;;
1350;SDS011;669;50.206;9.998;2023-02-24T13:37:29;8.70;;;6.67;;
1350;SDS011;669;50.206;9.998;2023-02-24T13:39:59;9.57;;;5.50;;
1350;SDS011;669;50.206;9.998;2023-02-24T13:42:42;10.20;;;6.33;;
1350;SDS011;669;50.206;9.998;2023-02-24T13:45:17;13.00;;;6.60;;
1350;SDS011;669;50.206;9.998;2023-02-24T13:47:59;11.47;;;7.07;;
1350;SDS011;669;50.206;9.998;2023-02-24T13:50:57;13.23;;;7.80;;
1350;SDS011;669;50.206;9.998;2023-02-24T13:53:39;13.03;;;8.90;;
1350;SDS011;669;50.206;9.998;2023-02-24T13:56:28;16.03;;;8.80;;
1350;SDS011;669;50.206;9.998;2023-02-24T14:02:11;16.03;;;8.80;;
1350;SDS011;669;50.206;9.998;2023-02-24T14:04:46;16.50;;;9.50;;
1350;SDS011;669;50.206;9.998;2023-02-24T14:07:18;13.97;;;8.23;;
1350;SDS011;669;50.206;9.998;2023-02-24T14:09:50;17.27;;;8.63;;
1350;SDS011;669;50.206;9.998;2023-02-24T14:12:22;13.93;;;8.43;;
1350;SDS011;669;50.206;9.998;2023-02-24T14:14:51;17.93;;;9.47;;
1350;SDS011;669;50.206;9.998;2023-02-24T14:17:21;14.83;;;9.07;;
1350;SDS011;669;50.206;9.998;2023-02-24T14:20:10;22.63;;;9.53;;
1350;SDS011;669;50.206;9.998;2023-02-24T14:22:45;14.47;;;8.27;;
1350;SDS011;669;50.206;9.998;2023-02-24T14:25:15;20.73;;;8.77;;
1350;SDS011;669;50.206;9.998;2023-02-24T14:27:44;12.80;;;8.30;;
1350;SDS011;669;50.206;9.998;2023-02-24T14:30:21;13.50;;;8.80;;
1350;SDS011;669;50.206;9.998;2023-02-24T14:32:51;12.87;;;7.90;;
1350;SDS011;669;50.206;9.998;2023-02-24T14:35:24;16.00;;;8.00;;
1350;SDS011;669;50.206;9.998;2023-02-24T14:37:59;15.73;;;8.53;;
1350;SDS011;669;50.206;9.998;2023-02-24T14:40:28;26.47;;;9.90;;
1350;SDS011;669;50.206;9.998;2023-02-24T14:42:56;15.10;;;9.10;;
1350;SDS011;669;50.206;9.998;2023-02-24T14:45:24;22.37;;;9.27;;
1350;SDS011;669;50.206;9.998;2023-02-24T14:47:55;14.07;;;8.90;;
1350;SDS011;669;50.206;9.998;2023-02-24T14:50:25;13.57;;;8.20;;
1350;SDS011;669;50.206;9.998;2023-02-24T14:52:57;15.90;;;9.50;;
1350;SDS011;669;50.206;9.998;2023-02-24T14:55:29;14.03;;;9.13;;
1350;SDS011;669;50.206;9.998;2023-02-24T14:58:01;18.20;;;8.43;;
1350;SDS011;669;50.206;9.998;2023-02-24T15:00:33;14.00;;;8.80;;
1350;SDS011;669;50.206;9.998;2023-02-24T15:03:05;15.90;;;10.10;;
1350;SDS011;669;50.206;9.998;2023-02-24T15:05:40;20.70;;;9.87;;
1350;SDS011;669;50.206;9.998;2023-02-24T15:08:15;16.33;;;8.83;;
1350;SDS011;669;50.206;9.998;2023-02-24T15:10:52;14.27;;;9.33;;
1350;SDS011;669;50.206;9.998;2023-02-24T15:13:22;11.93;;;7.87;;
1350;SDS011;669;50.206;9.998;2023-02-24T15:15:55;13.63;;;7.47;;
1350;SDS011;669;50.206;9.998;2023-02-24T15:18:28;16.27;;;8.67;;
1350;SDS011;669;50.206;9.998;2023-02-24T15:21:00;13.27;;;7.70;;
1350;SDS011;669;50.206;9.998;2023-02-24T15:23:31;11.03;;;7.20;;
1350;SDS011;669;50.206;9.998;2023-02-24T15:26:00;12.20;;;7.20;;
1350;SDS011;669;50.206;9.998;2023-02-24T15:28:30;12.33;;;7.77;;
1350;SDS011;669;50.206;9.998;2023-02-24T15:31:03;18.97;;;8.90;;
1350;SDS011;669;50.206;9.998;2023-02-24T15:33:36;13.63;;;8.30;;
1350;SDS011;669;50.206;9.998;2023-02-24T15:36:09;14.53;;;7.90;;
1350;SDS011;669;50.206;9.998;2023-02-24T15:38:42;9.27;;;6.03;;
1350;SDS011;669;50.206;9.998;2023-02-24T15:41:11;9.97;;;6.53;;
1350;SDS011;669;50.206;9.998;2023-02-24T15:43:44;10.00;;;6.70;;
1350;SDS011;669;50.206;9.998;2023-02-24T15:46:13;10.27;;;7.40;;
1350;SDS011;669;50.206;9.998;2023-02-24T15:48:47;18.27;;;9.93;;
1350;SDS011;669;50.206;9.998;2023-02-24T15:51:20;12.83;;;8.50;;
1350;SDS011;669;50.206;9.998;2023-02-24T15:53:57;11.33;;;8.30;;
1350;SDS011;669;50.206;9.998;2023-02-24T15:56:26;14.70;;;9.33;;